Time;durP1;ratioP1;P1;durP2;ratioP2;P2;SDS_P1;SDS_P2;PMS_P1;PMS_P2;Temp;Humidity;BMP_temperature;BMP_pressure;BME280_temperature;BME280_humidity;BME280_pressure;Samples;Min_cycle;Max_cycle;Signal;HPM_P1;HPM_P2
2023/12/14 00:00:14;;;;;;;8.65;5.22;;;5.00;99.90;;;;;;4979546;28;89107;-31
2023/12/14 00:02:40;;;;;;;7.95;5.22;;;5.00;99.90;;;;;;4980047;28;89367;-31
2023/12/14 00:05:06;;;;;;;7.43;5.93;;;5.10;99.90;;;;;;4979866;28;89289;-30
2023/12/14 00:07:31;;;;;;;8.07;6.05;;;5.00;99.90;;;;;;4978860;28;89113;-30
2023/12/14 00:09:57;;;;;;;7.93;4.38;;;5.10;99.90;;;;;;4979887;28;90163;-32
2023/12/14 00:12:23;;;;;;;7.28;5.97;;;5.10;99.90;;;;;;4980141;28;88762;-31
2023/12/14 00:14:48;;;;;;;9.02;5.35;;;5.10;99.90;;;;;;4980238;28;89775;-29
2023/12/14 00:17:14;;;;;;;6.70;4.78;;;5.10;99.90;;;;;;4980059;28;90607;-30
2023/12/14 00:19:40;;;;;;;6.85;4.90;;;5.00;99.90;;;;;;4981821;28;89581;-33
2023/12/14 00:22:05;;;;;;;6.10;3.83;;;5.00;99.90;;;;;;4983348;28;87687;-30
2023/12/14 00:24:31;;;;;;;9.85;5.28;;;5.00;99.90;;;;;;4983233;28;89846;-30
2023/12/14 00:26:56;;;;;;;8.82;4.03;;;4.90;99.90;;;;;;4983897;28;90346;-30
2023/12/14 00:29:22;;;;;;;8.63;4.78;;;4.90;99.90;;;;;;4979944;28;88576;-31
2023/12/14 00:31:48;;;;;;;8.75;5.38;;;4.90;99.90;;;;;;4982692;28;90016;-29
2023/12/14 00:34:13;;;;;;;9.93;5.22;;;4.90;99.90;;;;;;4981227;28;88021;-30
2023/12/14 00:36:39;;;;;;;6.20;4.93;;;4.90;99.90;;;;;;4981605;28;89626;-31
2023/12/14 00:39:04;;;;;;;6.15;4.25;;;4.90;99.90;;;;;;4981360;28;90598;-31
2023/12/14 00:41:30;;;;;;;7.03;5.10;;;4.90;99.90;;;;;;4981836;28;90694;-30
2023/12/14 00:43:55;;;;;;;6.18;4.45;;;5.00;99.90;;;;;;4982202;28;87628;-30
2023/12/14 00:46:21;;;;;;;7.32;5.53;;;4.90;99.90;;;;;;4979769;28;90555;-32
2023/12/14 00:48:47;;;;;;;7.88;5.15;;;4.90;99.90;;;;;;4981818;28;89318;-32
2023/12/14 00:51:12;;;;;;;8.55;5.85;;;4.90;99.90;;;;;;4980749;28;91318;-30
2023/12/14 00:53:38;;;;;;;8.45;5.45;;;4.90;99.90;;;;;;4982406;28;89241;-31
2023/12/14 00:56:03;;;;;;;7.18;4.95;;;4.90;99.90;;;;;;4981548;28;91908;-31
2023/12/14 00:58:29;;;;;;;9.02;4.72;;;5.00;99.90;;;;;;4980675;28;89463;-31
2023/12/14 01:00:55;;;;;;;7.20;4.93;;;5.00;99.90;;;;;;4982242;28;89538;-31
2023/12/14 01:03:20;;;;;;;7.72;5.07;;;5.00;99.90;;;;;;4980688;28;89413;-31
2023/12/14 01:05:46;;;;;;;7.75;5.78;;;5.00;99.90;;;;;;4982149;28;90627;-31
2023/12/14 01:08:12;;;;;;;8.68;4.40;;;5.00;99.90;;;;;;4981203;28;89424;-32
2023/12/14 01:10:37;;;;;;;6.75;5.15;;;4.90;99.90;;;;;;4981792;28;89610;-29
2023/12/14 01:13:03;;;;;;;8.77;6.68;;;4.90;99.90;;;;;;4981634;28;89633;-30
2023/12/14 01:15:28;;;;;;;8.50;5.43;;;5.00;99.90;;;;;;4980830;28;90147;-32
2023/12/14 01:17:54;;;;;;;8.00;5.35;;;4.90;99.90;;;;;;4980772;28;89652;-29
2023/12/14 01:20:20;;;;;;;10.80;5.47;;;4.90;99.90;;;;;;4981457;28;89401;-30
2023/12/14 01:22:45;;;;;;;5.38;4.38;;;4.90;99.90;;;;;;4981886;28;89678;-31
2023/12/14 01:25:11;;;;;;;6.68;4.78;;;4.90;99.90;;;;;;4981154;28;90834;-29
2023/12/14 01:27:36;;;;;;;7.63;4.78;;;4.80;99.90;;;;;;4980426;28;90460;-32
2023/12/14 01:30:02;;;;;;;6.70;4.47;;;4.80;99.90;;;;;;4980768;28;90374;-29
2023/12/14 01:32:28;;;;;;;6.55;3.65;;;4.90;99.90;;;;;;4980812;28;90189;-30
2023/12/14 01:34:53;;;;;;;7.45;4.05;;;4.90;99.90;;;;;;4981033;28;90274;-31
2023/12/14 01:37:19;;;;;;;6.13;4.95;;;4.90;99.90;;;;;;4980297;28;88248;-31
2023/12/14 01:39:45;;;;;;;4.68;4.13;;;4.90;99.90;;;;;;4981521;28;88161;-32
2023/12/14 01:42:10;;;;;;;7.97;4.70;;;4.90;99.90;;;;;;4980485;28;89627;-29
2023/12/14 01:44:36;;;;;;;11.00;7.35;;;4.90;99.90;;;;;;4980948;28;90263;-34
2023/12/14 01:47:01;;;;;;;6.75;4.85;;;4.80;99.90;;;;;;4981250;28;89717;-29
2023/12/14 01:49:27;;;;;;;11.95;4.25;;;4.80;99.90;;;;;;4980192;28;89582;-29
2023/12/14 01:51:52;;;;;;;5.97;4.18;;;4.80;99.90;;;;;;4980413;28;88948;-34
2023/12/14 01:54:18;;;;;;;6.60;4.75;;;4.80;99.90;;;;;;4980821;28;90601;-29
2023/12/14 01:56:44;;;;;;;14.73;5.90;;;4.80;99.90;;;;;;4980637;28;90764;-30
2023/12/14 01:59:09;;;;;;;7.18;5.03;;;4.70;99.90;;;;;;4980318;28;89283;-29
2023/12/14 02:01:46;;;;;;;8.27;5.40;;;4.80;99.90;;;;;;4980494;28;89156;-30
2023/12/14 02:04:13;;;;;;;7.97;6.10;;;4.80;99.90;;;;;;4980768;28;90683;-32
2023/12/14 02:06:39;;;;;;;9.52;5.13;;;4.70;99.90;;;;;;4980692;28;89459;-31
2023/12/14 02:09:05;;;;;;;5.43;4.00;;;4.70;99.90;;;;;;4980532;28;89494;-30
2023/12/14 02:11:30;;;;;;;7.28;5.05;;;4.70;99.90;;;;;;4981081;28;87483;-30
2023/12/14 02:13:56;;;;;;;7.82;5.65;;;4.70;99.90;;;;;;4980023;28;90388;-33
2023/12/14 02:16:22;;;;;;;11.00;6.47;;;4.60;99.90;;;;;;4980012;28;90659;-30
2023/12/14 02:18:48;;;;;;;8.95;4.32;;;4.60;99.90;;;;;;4980874;28;88891;-29
2023/12/14 02:21:13;;;;;;;9.82;6.72;;;4.60;99.90;;;;;;4980213;28;89059;-31
2023/12/14 02:23:44;;;;;;;9.00;4.75;;;4.60;99.90;;;;;;4980765;28;90759;-28
2023/12/14 02:26:09;;;;;;;8.45;5.57;;;4.60;99.90;;;;;;4979633;28;89743;-30
2023/12/14 02:28:35;;;;;;;7.95;5.43;;;4.70;99.90;;;;;;4980168;28;89210;-32
2023/12/14 02:31:01;;;;;;;13.20;5.88;;;4.70;99.90;;;;;;4980323;28;88849;-32
2023/12/14 02:33:26;;;;;;;7.60;5.43;;;4.70;99.90;;;;;;4980611;28;90885;-31
2023/12/14 02:35:52;;;;;;;9.57;5.68;;;4.70;99.90;;;;;;4979513;28;89525;-30
2023/12/14 02:38:17;;;;;;;7.53;5.88;;;4.60;99.90;;;;;;4980611;28;90314;-29
2023/12/14 02:40:43;;;;;;;6.70;4.75;;;4.60;99.90;;;;;;4979428;28;89077;-30
2023/12/14 02:43:08;;;;;;;8.85;4.50;;;4.60;99.90;;;;;;4979912;28;89989;-31
2023/12/14 02:45:34;;;;;;;7.15;5.20;;;4.70;99.90;;;;;;4979689;28;90046;-31
2023/12/14 02:48:00;;;;;;;9.50;6.20;;;4.70;99.90;;;;;;4980192;28;88993;-32
2023/12/14 02:50:25;;;;;;;7.65;5.53;;;4.60;99.90;;;;;;4980130;28;87623;-30
2023/12/14 02:52:51;;;;;;;12.65;6.15;;;4.60;99.90;;;;;;4979767;28;89760;-30
2023/12/14 02:55:16;;;;;;;7.88;4.95;;;4.60;99.90;;;;;;4979470;28;90432;-32
2023/12/14 02:57:42;;;;;;;6.70;4.10;;;4.60;99.90;;;;;;4980357;28;89590;-29
2023/12/14 03:00:08;;;;;;;8.88;5.65;;;4.70;99.90;;;;;;4979628;28;89458;-32
2023/12/14 03:02:34;;;;;;;5.00;4.13;;;4.60;99.90;;;;;;4979769;28;89325;-30
2023/12/14 03:04:59;;;;;;;6.90;4.30;;;4.60;99.90;;;;;;4978823;28;90336;-34
2023/12/14 03:07:25;;;;;;;6.50;4.30;;;4.60;99.90;;;;;;4979985;28;90275;-31
2023/12/14 03:09:51;;;;;;;5.85;3.97;;;4.60;99.90;;;;;;4979098;28;89676;-33
2023/12/14 03:12:16;;;;;;;7.93;4.80;;;4.60;99.90;;;;;;4980264;28;89168;-32
2023/12/14 03:14:42;;;;;;;7.57;4.72;;;4.60;99.90;;;;;;4979066;28;89662;-30
2023/12/14 03:17:12;;;;;;;6.20;5.03;;;4.60;99.90;;;;;;4979661;28;89862;-31
2023/12/14 03:19:39;;;;;;;6.53;4.65;;;4.60;99.90;;;;;;4978306;28;88034;-31
2023/12/14 03:22:05;;;;;;;6.80;4.25;;;4.50;99.90;;;;;;4979875;28;89705;-30
2023/12/14 03:24:30;;;;;;;8.55;4.95;;;4.50;99.90;;;;;;4979157;28;89165;-31
2023/12/14 03:26:56;;;;;;;10.35;5.50;;;4.60;99.90;;;;;;4979614;28;89627;-31
2023/12/14 03:29:22;;;;;;;15.38;6.30;;;4.60;99.90;;;;;;4978378;28;89638;-31
2023/12/14 03:31:48;;;;;;;15.38;5.97;;;4.50;99.90;;;;;;4979346;28;90232;-32
2023/12/14 03:34:13;;;;;;;7.82;5.35;;;4.60;99.90;;;;;;4978758;28;89685;-32
2023/12/14 03:36:39;;;;;;;8.18;5.28;;;4.50;99.90;;;;;;4978214;28;90248;-32
2023/12/14 03:39:05;;;;;;;5.00;4.55;;;4.60;99.90;;;;;;4979641;28;88937;-30
2023/12/14 03:41:32;;;;;;;8.45;4.60;;;4.50;99.90;;;;;;4979066;28;90377;-30
2023/12/14 03:43:57;;;;;;;5.75;3.85;;;4.60;99.90;;;;;;4979060;28;89568;-32
2023/12/14 03:46:23;;;;;;;9.63;4.80;;;4.60;99.90;;;;;;4979174;28;90523;-29
2023/12/14 03:48:49;;;;;;;7.38;5.22;;;4.60;99.90;;;;;;4979038;28;89657;-31
2023/12/14 03:51:19;;;;;;;8.05;4.80;;;4.50;99.90;;;;;;4979321;28;90552;-32
2023/12/14 03:53:45;;;;;;;6.38;4.15;;;4.50;99.90;;;;;;4978246;28;90715;-31
2023/12/14 03:56:11;;;;;;;8.75;5.60;;;4.50;99.90;;;;;;4978150;28;90380;-33
2023/12/14 03:58:36;;;;;;;8.75;5.47;;;4.50;99.90;;;;;;4978971;28;88356;-32
2023/12/14 04:01:02;;;;;;;6.68;5.53;;;4.50;99.90;;;;;;4978931;28;91216;-30
2023/12/14 04:03:28;;;;;;;9.23;5.45;;;4.50;99.90;;;;;;4978712;28;90206;-31
2023/12/14 04:05:53;;;;;;;9.32;4.75;;;4.50;99.90;;;;;;4979097;28;89486;-33
2023/12/14 04:08:19;;;;;;;11.43;6.20;;;4.50;99.90;;;;;;4978538;28;89210;-34
2023/12/14 04:10:45;;;;;;;8.20;5.10;;;4.50;99.90;;;;;;4979537;28;90626;-30
2023/12/14 04:13:10;;;;;;;8.73;5.45;;;4.50;99.90;;;;;;4978619;28;90519;-32
2023/12/14 04:15:36;;;;;;;8.70;5.97;;;4.60;99.90;;;;;;4978615;28;89765;-32
2023/12/14 04:18:01;;;;;;;10.98;5.80;;;4.60;99.90;;;;;;4978804;28;89026;-30
2023/12/14 04:20:27;;;;;;;12.60;5.35;;;4.60;99.90;;;;;;4978599;28;90172;-29
2023/12/14 04:22:53;;;;;;;11.20;6.32;;;4.60;99.90;;;;;;4978808;28;89840;-34
2023/12/14 04:25:18;;;;;;;6.68;5.55;;;4.60;99.90;;;;;;4978575;28;89545;-33
2023/12/14 04:27:44;;;;;;;10.38;6.63;;;4.60;99.90;;;;;;4978847;28;89032;-29
2023/12/14 04:30:11;;;;;;;8.77;5.82;;;4.60;99.90;;;;;;4978099;28;90288;-28
2023/12/14 04:32:37;;;;;;;11.52;6.82;;;4.50;99.90;;;;;;4978614;28;89268;-31
2023/12/14 04:35:04;;;;;;;33.45;6.80;;;4.60;99.90;;;;;;4979326;28;90173;-32
2023/12/14 04:37:30;;;;;;;10.88;6.57;;;4.60;99.90;;;;;;4977856;28;89743;-30
2023/12/14 04:39:57;;;;;;;14.07;6.00;;;4.60;99.90;;;;;;4978532;28;90039;-31
2023/12/14 04:42:23;;;;;;;7.20;5.10;;;4.60;99.90;;;;;;4978205;28;90849;-29
2023/12/14 04:44:48;;;;;;;9.10;5.60;;;4.50;99.90;;;;;;4978469;28;91959;-33
2023/12/14 04:47:14;;;;;;;17.60;6.60;;;4.50;99.90;;;;;;4978272;28;89541;-30
2023/12/14 04:49:40;;;;;;;10.00;5.97;;;4.50;99.90;;;;;;4978590;28;89909;-30
2023/12/14 04:52:06;;;;;;;9.27;5.63;;;4.50;99.90;;;;;;4977820;28;89824;-31
2023/12/14 04:54:31;;;;;;;10.32;5.05;;;4.50;99.90;;;;;;4979006;28;89517;-29
2023/12/14 04:56:57;;;;;;;15.00;7.97;;;4.60;99.90;;;;;;4978149;28;88938;-31
2023/12/14 04:59:23;;;;;;;13.13;6.05;;;4.60;99.90;;;;;;4978512;28;90254;-33
2023/12/14 05:01:48;;;;;;;15.45;5.38;;;4.50;99.90;;;;;;4978472;28;89271;-31
2023/12/14 05:04:14;;;;;;;7.07;5.35;;;4.60;99.90;;;;;;4978104;28;89661;-33
2023/12/14 05:06:40;;;;;;;10.55;5.25;;;4.60;99.90;;;;;;4980141;28;90276;-29
2023/12/14 05:09:06;;;;;;;10.25;6.82;;;4.60;99.90;;;;;;4981101;28;90289;-30
2023/12/14 05:11:32;;;;;;;10.10;6.57;;;4.60;99.90;;;;;;4980881;28;89225;-33
2023/12/14 05:13:58;;;;;;;9.15;6.18;;;4.60;99.90;;;;;;4981703;28;90042;-32
2023/12/14 05:16:27;;;;;;;8.82;6.68;;;4.50;99.90;;;;;;4980930;28;89257;-34
2023/12/14 05:18:56;;;;;;;14.43;6.03;;;4.60;99.90;;;;;;4981643;28;89811;-33
2023/12/14 05:21:23;;;;;;;9.15;6.38;;;4.60;99.90;;;;;;4980918;28;89103;-30
2023/12/14 05:23:48;;;;;;;6.45;4.45;;;4.60;99.90;;;;;;4982211;28;89783;-31
2023/12/14 05:26:14;;;;;;;9.00;5.47;;;4.70;99.90;;;;;;4980642;28;88379;-29
2023/12/14 05:28:40;;;;;;;9.90;6.32;;;4.60;99.90;;;;;;4981802;28;89897;-31
2023/12/14 05:31:05;;;;;;;8.52;5.22;;;4.60;99.90;;;;;;4979715;28;91306;-30
2023/12/14 05:33:33;;;;;;;10.90;6.22;;;4.60;99.90;;;;;;4981190;28;90786;-31
2023/12/14 05:35:59;;;;;;;12.13;5.47;;;4.60;99.90;;;;;;4980860;28;89253;-32
2023/12/14 05:38:25;;;;;;;11.10;6.22;;;4.60;99.90;;;;;;4980425;28;90668;-32
2023/12/14 05:40:50;;;;;;;18.10;7.93;;;4.50;99.90;;;;;;4981768;28;90457;-32
2023/12/14 05:43:16;;;;;;;8.70;5.88;;;4.50;99.90;;;;;;4980992;28;89899;-28
2023/12/14 05:45:41;;;;;;;10.68;6.90;;;4.50;99.90;;;;;;4980841;28;89011;-30
2023/12/14 05:48:07;;;;;;;7.97;6.05;;;4.50;99.90;;;;;;4981541;28;90559;-30
2023/12/14 05:50:32;;;;;;;8.55;5.03;;;4.50;99.90;;;;;;4979988;28;88889;-32
2023/12/14 05:52:58;;;;;;;9.18;6.78;;;4.50;99.90;;;;;;4980864;28;89944;-33
2023/12/14 05:55:24;;;;;;;7.43;6.05;;;4.50;99.90;;;;;;4980299;28;88869;-30
2023/12/14 05:57:49;;;;;;;8.55;5.70;;;4.50;99.90;;;;;;4980589;28;90165;-33
2023/12/14 06:00:15;;;;;;;12.93;6.55;;;4.50;99.90;;;;;;4980341;28;89588;-30
2023/12/14 06:02:41;;;;;;;10.00;5.53;;;4.50;99.90;;;;;;4980452;28;89028;-31
2023/12/14 06:05:08;;;;;;;11.23;5.40;;;4.50;99.90;;;;;;4981292;28;90146;-30
2023/12/14 06:07:33;;;;;;;11.15;5.25;;;4.50;99.90;;;;;;4980403;28;91592;-31
2023/12/14 06:10:00;;;;;;;6.50;4.90;;;4.50;99.90;;;;;;4980354;28;90025;-31
2023/12/14 06:12:26;;;;;;;8.00;5.18;;;4.50;99.90;;;;;;4980762;28;88788;-30
2023/12/14 06:14:52;;;;;;;6.15;4.60;;;4.50;99.90;;;;;;4980440;28;88745;-29
2023/12/14 06:17:18;;;;;;;7.05;5.13;;;4.50;99.90;;;;;;4980255;28;89919;-31
2023/12/14 06:19:43;;;;;;;8.38;4.97;;;4.50;99.90;;;;;;4979439;28;90769;-29
2023/12/14 06:22:09;;;;;;;9.20;5.22;;;4.40;99.90;;;;;;4980575;28;89027;-32
2023/12/14 06:24:34;;;;;;;6.53;5.28;;;4.50;99.90;;;;;;4981065;28;89644;-29
2023/12/14 06:27:00;;;;;;;9.85;6.07;;;4.50;99.90;;;;;;4979353;28;91335;-31
2023/12/14 06:29:26;;;;;;;9.85;6.43;;;4.40;99.90;;;;;;4975134;28;89615;-31
2023/12/14 06:31:52;;;;;;;9.50;6.03;;;4.40;99.90;;;;;;4980272;28;89590;-30
2023/12/14 06:34:18;;;;;;;12.57;6.63;;;4.40;99.90;;;;;;4980068;28;89567;-32
2023/12/14 06:36:45;;;;;;;9.98;5.57;;;4.40;99.90;;;;;;4979934;28;91333;-32
2023/12/14 06:39:11;;;;;;;11.30;5.85;;;4.40;99.90;;;;;;4979668;28;90695;-32
2023/12/14 06:41:37;;;;;;;10.73;6.55;;;4.40;99.90;;;;;;4979684;28;89560;-33
2023/12/14 06:44:03;;;;;;;9.30;5.10;;;4.40;99.90;;;;;;4979586;28;90075;-31
2023/12/14 06:46:29;;;;;;;9.55;5.85;;;4.40;99.90;;;;;;4979157;28;90143;-31
2023/12/14 06:48:55;;;;;;;7.05;5.82;;;4.40;99.90;;;;;;4979748;28;89612;-30
2023/12/14 06:51:21;;;;;;;7.05;5.70;;;4.40;99.90;;;;;;4974198;28;89149;-32
2023/12/14 06:53:47;;;;;;;8.70;5.35;;;4.40;99.90;;;;;;4977808;28;88495;-30
2023/12/14 06:56:13;;;;;;;7.97;6.05;;;4.40;99.90;;;;;;4977338;28;89277;-32
2023/12/14 06:58:40;;;;;;;9.63;5.25;;;4.40;99.90;;;;;;4977337;28;89180;-30
2023/12/14 07:01:06;;;;;;;8.32;5.35;;;4.40;99.90;;;;;;4977584;28;89954;-33
2023/12/14 07:03:32;;;;;;;8.93;5.53;;;4.40;99.90;;;;;;4977990;28;89263;-31
2023/12/14 07:05:58;;;;;;;12.23;5.10;;;4.50;99.90;;;;;;4976639;28;89382;-31
2023/12/14 07:08:24;;;;;;;11.10;6.30;;;4.40;99.90;;;;;;4977421;28;90735;-32
2023/12/14 07:10:49;;;;;;;9.43;5.20;;;4.40;99.90;;;;;;4977193;28;90796;-32
2023/12/14 07:13:15;;;;;;;13.98;8.13;;;4.40;99.90;;;;;;4975740;28;88703;-29
2023/12/14 07:15:41;;;;;;;11.90;5.13;;;4.40;99.90;;;;;;4977228;28;90186;-30
2023/12/14 07:18:06;;;;;;;12.13;5.93;;;4.40;99.90;;;;;;4977137;28;89693;-31
2023/12/14 07:20:32;;;;;;;8.35;4.80;;;4.40;99.90;;;;;;4976330;28;89495;-31
2023/12/14 07:22:57;;;;;;;8.57;5.70;;;4.50;99.90;;;;;;4978200;28;89011;-29
2023/12/14 07:25:23;;;;;;;9.45;6.28;;;4.50;99.90;;;;;;4976778;28;90031;-32
2023/12/14 07:27:49;;;;;;;13.00;6.07;;;4.40;99.90;;;;;;4975182;28;89188;-31
2023/12/14 07:30:14;;;;;;;9.00;7.18;;;4.40;99.90;;;;;;4976562;28;89494;-31
2023/12/14 07:32:40;;;;;;;10.48;6.72;;;4.40;99.90;;;;;;4976526;28;90270;-30
2023/12/14 07:35:06;;;;;;;10.15;6.80;;;4.50;99.90;;;;;;4976249;28;90242;-31
2023/12/14 07:37:32;;;;;;;10.25;5.85;;;4.40;99.90;;;;;;4996324;22;90908;-33
2023/12/14 07:40:01;;;;;;;9.50;6.88;;;4.40;99.90;;;;;;4957195;28;89490;-31
2023/12/14 07:42:26;;;;;;;6.82;5.95;;;4.40;99.90;;;;;;4956105;28;88785;-30
2023/12/14 07:44:52;;;;;;;10.32;6.45;;;4.40;99.90;;;;;;4957933;28;90261;-33
2023/12/14 07:47:18;;;;;;;12.10;7.35;;;4.40;99.90;;;;;;4957282;28;89550;-30
2023/12/14 07:49:45;;;;;;;14.82;6.55;;;4.50;99.90;;;;;;4956833;28;88799;-29
2023/12/14 07:52:13;;;;;;;18.13;7.88;;;4.40;99.90;;;;;;4956943;28;89481;-33
2023/12/14 07:54:39;;;;;;;13.60;7.40;;;4.50;99.90;;;;;;4957371;28;90204;-29
2023/12/14 07:57:05;;;;;;;10.88;7.20;;;4.40;99.90;;;;;;4956142;28;90522;-30
2023/12/14 07:59:30;;;;;;;8.45;6.00;;;4.50;99.90;;;;;;4958409;28;90710;-30
2023/12/14 08:01:56;;;;;;;13.52;7.38;;;4.50;99.90;;;;;;4956836;28;90122;-29
2023/12/14 08:04:21;;;;;;;12.35;7.45;;;4.50;99.90;;;;;;4956652;28;90693;-34
2023/12/14 08:06:47;;;;;;;14.93;6.88;;;4.50;99.90;;;;;;4957069;28;89249;-30
2023/12/14 08:09:13;;;;;;;9.10;6.65;;;4.40;99.90;;;;;;4957317;28;89719;-33
2023/12/14 08:11:38;;;;;;;8.57;5.65;;;4.50;99.90;;;;;;4956906;28;90131;-29
2023/12/14 08:14:04;;;;;;;8.77;6.93;;;4.50;99.90;;;;;;4956719;28;90958;-30
2023/12/14 08:16:29;;;;;;;9.63;6.47;;;4.50;99.90;;;;;;4957034;28;89600;-31
2023/12/14 08:18:55;;;;;;;7.95;5.50;;;4.50;99.90;;;;;;4956622;28;88989;-30
2023/12/14 08:21:21;;;;;;;9.77;5.95;;;4.40;99.90;;;;;;4956893;28;87947;-31
2023/12/14 08:23:46;;;;;;;11.30;5.60;;;4.50;99.90;;;;;;4957509;28;90432;-29
2023/12/14 08:26:12;;;;;;;8.90;6.22;;;4.50;99.90;;;;;;4955796;28;89341;-33
2023/12/14 08:28:42;;;;;;;9.23;5.72;;;4.40;99.90;;;;;;4956507;28;89245;-32
2023/12/14 08:31:10;;;;;;;10.63;5.57;;;4.50;99.90;;;;;;4955075;28;88340;-29
2023/12/14 08:33:36;;;;;;;13.10;8.23;;;4.50;99.90;;;;;;4953769;28;89770;-30
2023/12/14 08:36:02;;;;;;;9.48;6.43;;;4.50;99.90;;;;;;4954688;28;89667;-30
2023/12/14 08:38:27;;;;;;;8.15;5.30;;;4.50;99.90;;;;;;4958376;28;89523;-31
2023/12/14 08:40:53;;;;;;;11.27;6.95;;;4.50;99.90;;;;;;4951449;28;88431;-33
2023/12/14 08:43:19;;;;;;;12.35;6.75;;;4.50;99.90;;;;;;4952901;28;92513;-31
2023/12/14 08:45:44;;;;;;;10.00;5.70;;;4.60;99.90;;;;;;4949953;28;91920;-28
2023/12/14 08:48:10;;;;;;;9.90;6.68;;;4.60;99.90;;;;;;4951287;28;90838;-32
2023/12/14 08:50:35;;;;;;;9.30;6.43;;;4.50;99.90;;;;;;4959210;28;88574;-33
2023/12/14 08:53:01;;;;;;;9.60;5.10;;;4.50;99.90;;;;;;4959382;28;90160;-31
2023/12/14 08:55:27;;;;;;;10.48;4.82;;;4.60;99.90;;;;;;4959885;28;89865;-32
2023/12/14 08:57:53;;;;;;;20.70;5.82;;;4.70;99.90;;;;;;4958751;28;89618;-32
2023/12/14 09:00:19;;;;;;;14.38;8.55;;;4.70;99.90;;;;;;4956140;28;89817;-33
2023/12/14 09:02:45;;;;;;;13.45;7.05;;;4.80;99.90;;;;;;4951421;28;91265;-30
2023/12/14 09:05:16;;;;;;;17.05;8.05;;;4.80;99.90;;;;;;4958927;28;89563;-30
2023/12/14 09:07:42;;;;;;;12.60;7.68;;;4.80;99.90;;;;;;4959899;28;89875;-33
2023/12/14 09:10:08;;;;;;;9.52;5.03;;;4.80;99.90;;;;;;4959659;28;90510;-31
2023/12/14 09:12:34;;;;;;;11.65;6.20;;;4.80;99.90;;;;;;4959345;28;89499;-31
2023/12/14 09:15:00;;;;;;;14.80;6.70;;;4.80;99.90;;;;;;4959043;28;90152;-29
2023/12/14 09:17:31;;;;;;;9.57;6.40;;;4.80;99.90;;;;;;4960387;28;90378;-31
2023/12/14 09:19:57;;;;;;;12.60;6.72;;;4.80;99.90;;;;;;4959451;28;89424;-32
2023/12/14 09:22:23;;;;;;;10.95;5.95;;;4.80;99.90;;;;;;4959683;28;90141;-30
2023/12/14 09:24:48;;;;;;;10.98;7.05;;;4.90;99.90;;;;;;4959246;28;89765;-31
2023/12/14 09:27:14;;;;;;;12.70;7.43;;;4.90;99.90;;;;;;4959706;28;89408;-29
2023/12/14 09:29:40;;;;;;;13.15;8.05;;;4.80;99.90;;;;;;4959510;28;90178;-31
2023/12/14 09:32:08;;;;;;;10.95;7.60;;;4.90;99.90;;;;;;4959728;28;90167;-29
2023/12/14 09:34:34;;;;;;;12.77;7.30;;;4.80;99.90;;;;;;4957442;28;91484;-31
2023/12/14 09:36:59;;;;;;;16.75;8.25;;;4.80;99.90;;;;;;4958163;28;90825;-32
2023/12/14 09:39:25;;;;;;;9.60;6.05;;;4.80;99.90;;;;;;4959661;28;87699;-30
2023/12/14 09:41:51;;;;;;;19.23;7.28;;;4.80;99.90;;;;;;4958520;28;91858;-32
2023/12/14 09:44:17;;;;;;;18.30;9.10;;;4.80;99.90;;;;;;4956944;28;89190;-33
2023/12/14 09:46:49;;;;;;;9.40;6.05;;;4.90;99.90;;;;;;4960059;28;89171;-31
2023/12/14 09:49:15;;;;;;;11.77;6.72;;;4.90;99.90;;;;;;4956069;28;88312;-34
2023/12/14 09:51:41;;;;;;;20.85;8.73;;;4.90;99.90;;;;;;4958348;28;90528;-33
2023/12/14 09:54:07;;;;;;;16.38;7.38;;;4.90;99.90;;;;;;4957574;28;90514;-33
2023/12/14 09:56:33;;;;;;;14.65;7.63;;;4.90;99.90;;;;;;4958059;28;89829;-33
2023/12/14 09:59:01;;;;;;;11.85;7.07;;;4.90;99.90;;;;;;4958993;28;90288;-32
2023/12/14 10:01:28;;;;;;;15.98;7.97;;;5.00;99.90;;;;;;4958320;28;90457;-31
2023/12/14 10:04:14;;;;;;;14.13;8.45;;;5.00;99.90;;;;;;4958676;28;89622;-34
2023/12/14 10:06:42;;;;;;;12.65;9.00;;;5.00;99.90;;;;;;4958630;28;89732;-34
2023/12/14 10:09:14;;;;;;;10.90;7.60;;;4.90;99.90;;;;;;4959134;28;88844;-33
2023/12/14 10:11:41;;;;;;;17.85;8.82;;;5.00;99.90;;;;;;4958261;28;90355;-33
2023/12/14 10:14:25;;;;;;;11.52;7.90;;;5.00;99.90;;;;;;4958944;28;89265;-34
2023/12/14 10:16:51;;;;;;;11.95;7.60;;;4.90;99.90;;;;;;4947233;28;88259;-32
2023/12/14 10:19:18;;;;;;;13.95;8.30;;;5.00;99.90;;;;;;4956902;28;89099;-32
2023/12/14 10:21:46;;;;;;;11.50;7.82;;;5.00;99.90;;;;;;4958000;28;89733;-32
2023/12/14 10:24:12;;;;;;;15.18;8.35;;;5.00;99.90;;;;;;4957308;28;90165;-32
2023/12/14 10:26:38;;;;;;;15.07;8.68;;;4.90;99.90;;;;;;4958039;28;90409;-33
2023/12/14 10:29:06;;;;;;;16.35;9.27;;;4.90;99.90;;;;;;4957895;28;87689;-31
2023/12/14 10:31:37;;;;;;;14.88;9.57;;;5.00;99.90;;;;;;4957774;28;90423;-35
2023/12/14 10:34:03;;;;;;;16.77;8.32;;;5.00;99.90;;;;;;4955291;28;90141;-34
2023/12/14 10:36:30;;;;;;;14.63;7.45;;;5.00;99.90;;;;;;4956548;28;90142;-34
2023/12/14 10:38:58;;;;;;;17.95;8.60;;;5.00;99.90;;;;;;4958906;28;88534;-34
2023/12/14 10:41:24;;;;;;;14.88;8.65;;;5.00;99.90;;;;;;4959274;28;90290;-34
2023/12/14 10:43:53;;;;;;;17.48;8.63;;;5.10;99.90;;;;;;4945376;28;90578;-32
2023/12/14 10:46:20;;;;;;;17.05;8.05;;;5.10;99.90;;;;;;4957036;28;88491;-31
2023/12/14 10:48:48;;;;;;;20.50;9.57;;;5.10;99.90;;;;;;4957245;28;89475;-33
2023/12/14 10:51:15;;;;;;;14.20;9.23;;;5.10;99.90;;;;;;4955695;28;89851;-34
2023/12/14 10:53:44;;;;;;;15.05;8.30;;;5.20;99.90;;;;;;4958106;28;89751;-34
2023/12/14 10:56:11;;;;;;;16.50;7.22;;;5.20;99.90;;;;;;4957499;28;90344;-33
2023/12/14 10:58:57;;;;;;;10.20;5.80;;;5.20;99.90;;;;;;4957939;28;89175;-32
2023/12/14 11:01:24;;;;;;;13.10;7.93;;;5.20;99.90;;;;;;4957908;28;90588;-33
2023/12/14 11:03:53;;;;;;;18.70;7.47;;;5.30;99.90;;;;;;4957259;28;89509;-33
2023/12/14 11:06:24;;;;;;;17.98;7.75;;;5.30;99.90;;;;;;4958253;28;89373;-35
2023/12/14 11:08:55;;;;;;;18.20;7.22;;;5.30;99.90;;;;;;4952715;28;88955;-31
2023/12/14 11:11:21;;;;;;;12.77;7.03;;;5.40;99.90;;;;;;4958286;28;90525;-31
2023/12/14 11:13:52;;;;;;;19.02;10.48;;;5.40;99.90;;;;;;4957270;28;91610;-32
2023/12/14 11:16:22;;;;;;;16.77;8.73;;;5.40;99.90;;;;;;4956958;28;89784;-32
2023/12/14 11:18:48;;;;;;;14.82;8.55;;;5.40;99.90;;;;;;4957162;28;88746;-31
2023/12/14 11:21:21;;;;;;;15.30;9.90;;;5.40;99.90;;;;;;4957457;28;90556;-31
2023/12/14 11:23:50;;;;;;;12.77;7.32;;;5.50;99.90;;;;;;4957260;28;88437;-31
2023/12/14 11:26:21;;;;;;;12.85;7.80;;;5.50;99.90;;;;;;4954422;28;89267;-31
2023/12/14 11:28:48;;;;;;;22.58;9.35;;;5.50;99.90;;;;;;4958132;28;89374;-31
2023/12/14 11:31:14;;;;;;;17.55;8.50;;;5.60;99.90;;;;;;4956868;28;90167;-32
2023/12/14 11:33:40;;;;;;;10.73;8.18;;;5.60;99.90;;;;;;4957290;28;90234;-35
2023/12/14 11:36:05;;;;;;;11.25;8.73;;;5.60;99.90;;;;;;4956174;28;89381;-32
2023/12/14 11:38:31;;;;;;;10.23;7.57;;;5.60;99.90;;;;;;4956066;28;89043;-30
2023/12/14 11:40:59;;;;;;;15.45;8.90;;;5.60;99.90;;;;;;4956812;28;89798;-32
2023/12/14 11:43:26;;;;;;;12.80;9.48;;;5.60;99.90;;;;;;4957570;28;89915;-34
2023/12/14 11:45:53;;;;;;;14.85;8.10;;;5.60;99.90;;;;;;4956437;28;89874;-31
2023/12/14 11:48:20;;;;;;;20.02;9.73;;;5.60;99.90;;;;;;4957626;28;88950;-35
2023/12/14 11:50:47;;;;;;;15.60;7.85;;;5.60;99.90;;;;;;4957297;28;89021;-33
2023/12/14 11:53:13;;;;;;;14.30;8.02;;;5.60;99.90;;;;;;4956094;28;89781;-34
2023/12/14 11:55:41;;;;;;;10.93;7.40;;;5.60;99.90;;;;;;4956756;28;90184;-33
2023/12/14 11:58:07;;;;;;;10.93;8.20;;;5.60;99.90;;;;;;4961420;28;89730;-33
2023/12/14 12:00:37;;;;;;;12.30;8.38;;;5.60;99.90;;;;;;4943844;28;90197;-33
2023/12/14 12:03:21;;;;;;;15.23;7.47;;;5.70;99.90;;;;;;4955566;28;91866;-33
2023/12/14 12:05:51;;;;;;;15.48;7.57;;;5.70;99.90;;;;;;4956856;28;90465;-31
2023/12/14 12:08:19;;;;;;;22.77;8.70;;;5.70;99.90;;;;;;4953656;28;89054;-34
2023/12/14 12:10:46;;;;;;;15.30;8.63;;;5.60;99.90;;;;;;4951685;28;89799;-35
2023/12/14 12:13:16;;;;;;;30.48;9.38;;;5.60;99.90;;;;;;4956307;28;89223;-31
2023/12/14 12:15:41;;;;;;;13.90;9.07;;;5.70;99.90;;;;;;4954409;28;89070;-31
2023/12/14 12:18:09;;;;;;;12.10;7.90;;;5.60;99.90;;;;;;4958763;28;88586;-29
2023/12/14 12:20:35;;;;;;;12.52;8.13;;;5.60;99.90;;;;;;4959483;28;89106;-33
2023/12/14 12:23:02;;;;;;;15.50;8.52;;;5.60;99.90;;;;;;4958694;28;90114;-31
2023/12/14 12:25:28;;;;;;;16.48;9.05;;;5.60;99.90;;;;;;4951563;28;89507;-33
2023/12/14 12:27:55;;;;;;;14.70;7.55;;;5.60;99.90;;;;;;4958616;28;89574;-32
2023/12/14 12:30:21;;;;;;;14.30;9.10;;;5.60;99.90;;;;;;4959664;28;89850;-33
2023/12/14 12:32:47;;;;;;;17.77;7.97;;;5.60;99.90;;;;;;4958748;28;89704;-31
2023/12/14 12:35:13;;;;;;;10.40;8.38;;;5.60;99.90;;;;;;4958951;28;89254;-30
2023/12/14 12:37:39;;;;;;;15.05;7.22;;;5.60;99.90;;;;;;4959332;28;89232;-34
2023/12/14 12:40:05;;;;;;;15.38;8.13;;;5.60;99.90;;;;;;4959285;28;90179;-31
2023/12/14 12:42:31;;;;;;;11.40;6.90;;;5.60;99.90;;;;;;4960040;28;90033;-34
2023/12/14 12:44:57;;;;;;;11.57;7.75;;;5.60;99.90;;;;;;4958436;28;89160;-33
2023/12/14 12:47:23;;;;;;;22.98;8.65;;;5.60;99.90;;;;;;4959905;28;89355;-29